sensor_id;sensor_type;location;lat;lon;timestamp;P1;durP1;ratioP1;P2;durP2;ratioP2
73699;SDS011;62005;50.082;8.988;2023-03-01T00:00:12;7.85;;;4.28;;
73699;SDS011;62005;50.082;8.988;2023-03-01T00:02:37;7.03;;;4.63;;
73699;SDS011;62005;50.082;8.988;2023-03-01T00:05:03;10.67;;;5.63;;
73699;SDS011;62005;50.082;8.988;2023-03-01T00:07:29;8.38;;;5.70;;
73699;SDS011;62005;50.082;8.988;2023-03-01T00:10:03;11.60;;;4.73;;
73699;SDS011;62005;50.082;8.988;2023-03-01T00:12:56;8.45;;;3.88;;
73699;SDS011;62005;50.082;8.988;2023-03-01T00:15:47;6.35;;;3.78;;
73699;SDS011;62005;50.082;8.988;2023-03-01T00:18:34;10.13;;;5.20;;
73699;SDS011;62005;50.082;8.988;2023-03-01T00:21:29;8.75;;;5.13;;
73699;SDS011;62005;50.082;8.988;2023-03-01T00:24:10;11.32;;;4.80;;
73699;SDS011;62005;50.082;8.988;2023-03-01T00:29:04;8.27;;;3.67;;
73699;SDS011;62005;50.082;8.988;2023-03-01T00:31:31;8.20;;;5.90;;
73699;SDS011;62005;50.082;8.988;2023-03-01T00:33:58;8.88;;;4.45;;
73699;SDS011;62005;50.082;8.988;2023-03-01T00:36:27;9.48;;;4.80;;
73699;SDS011;62005;50.082;8.988;2023-03-01T00:38:53;9.65;;;5.50;;
73699;SDS011;62005;50.082;8.988;2023-03-01T00:41:19;8.45;;;4.50;;
73699;SDS011;62005;50.082;8.988;2023-03-01T00:43:47;9.10;;;4.53;;
73699;SDS011;62005;50.082;8.988;2023-03-01T00:46:15;8.93;;;5.18;;
73699;SDS011;62005;50.082;8.988;2023-03-01T00:48:45;8.95;;;4.38;;
73699;SDS011;62005;50.082;8.988;2023-03-01T00:51:17;10.82;;;5.40;;
73699;SDS011;62005;50.082;8.988;2023-03-01T00:53:43;8.23;;;3.88;;
73699;SDS011;62005;50.082;8.988;2023-03-01T00:56:09;11.07;;;5.78;;
73699;SDS011;62005;50.082;8.988;2023-03-01T00:58:36;11.30;;;5.53;;
73699;SDS011;62005;50.082;8.988;2023-03-01T01:01:09;11.88;;;5.95;;
73699;SDS011;62005;50.082;8.988;2023-03-01T01:03:42;13.85;;;6.43;;
73699;SDS011;62005;50.082;8.988;2023-03-01T01:06:14;20.95;;;8.20;;
73699;SDS011;62005;50.082;8.988;2023-03-01T01:08:41;27.80;;;10.30;;
73699;SDS011;62005;50.082;8.988;2023-03-01T01:11:08;41.73;;;12.00;;
73699;SDS011;62005;50.082;8.988;2023-03-01T01:13:34;32.47;;;9.95;;
73699;SDS011;62005;50.082;8.988;2023-03-01T01:16:00;33.50;;;9.43;;
73699;SDS011;62005;50.082;8.988;2023-03-01T01:18:26;61.05;;;15.57;;
73699;SDS011;62005;50.082;8.988;2023-03-01T01:20:51;60.60;;;15.30;;
73699;SDS011;62005;50.082;8.988;2023-03-01T01:23:17;92.97;;;22.17;;
73699;SDS011;62005;50.082;8.988;2023-03-01T01:25:42;56.87;;;16.37;;
73699;SDS011;62005;50.082;8.988;2023-03-01T01:28:07;38.03;;;11.60;;
73699;SDS011;62005;50.082;8.988;2023-03-01T01:30:33;19.20;;;8.13;;
73699;SDS011;62005;50.082;8.988;2023-03-01T01:32:58;13.60;;;6.00;;
73699;SDS011;62005;50.082;8.988;2023-03-01T01:35:23;10.40;;;5.43;;
73699;SDS011;62005;50.082;8.988;2023-03-01T01:37:49;10.32;;;4.43;;
73699;SDS011;62005;50.082;8.988;2023-03-01T01:40:14;9.20;;;4.53;;
73699;SDS011;62005;50.082;8.988;2023-03-01T01:42:43;8.93;;;4.47;;
73699;SDS011;62005;50.082;8.988;2023-03-01T01:48:02;9.13;;;4.47;;
73699;SDS011;62005;50.082;8.988;2023-03-01T01:50:29;10.65;;;6.43;;
73699;SDS011;62005;50.082;8.988;2023-03-01T01:53:03;9.82;;;4.70;;
73699;SDS011;62005;50.082;8.988;2023-03-01T01:55:31;10.15;;;4.78;;
73699;SDS011;62005;50.082;8.988;2023-03-01T01:57:58;9.75;;;4.30;;
73699;SDS011;62005;50.082;8.988;2023-03-01T02:00:27;9.70;;;5.38;;
73699;SDS011;62005;50.082;8.988;2023-03-01T02:02:55;10.15;;;4.50;;
73699;SDS011;62005;50.082;8.988;2023-03-01T02:08:08;10.50;;;5.05;;
73699;SDS011;62005;50.082;8.988;2023-03-01T02:10:45;7.85;;;4.32;;
73699;SDS011;62005;50.082;8.988;2023-03-01T02:13:30;10.23;;;5.18;;
73699;SDS011;62005;50.082;8.988;2023-03-01T02:28:45;9.30;;;4.72;;
73699;SDS011;62005;50.082;8.988;2023-03-01T02:31:30;10.43;;;6.65;;
73699;SDS011;62005;50.082;8.988;2023-03-01T02:34:20;9.48;;;4.10;;
73699;SDS011;62005;50.082;8.988;2023-03-01T02:36:56;13.18;;;5.20;;
73699;SDS011;62005;50.082;8.988;2023-03-01T02:40:12;8.02;;;4.38;;
73699;SDS011;62005;50.082;8.988;2023-03-01T02:43:18;8.40;;;4.80;;
73699;SDS011;62005;50.082;8.988;2023-03-01T02:46:22;11.38;;;5.40;;
73699;SDS011;62005;50.082;8.988;2023-03-01T02:58:14;9.57;;;5.38;;
73699;SDS011;62005;50.082;8.988;2023-03-01T03:06:18;9.93;;;5.38;;
73699;SDS011;62005;50.082;8.988;2023-03-01T03:09:17;13.98;;;5.20;;
73699;SDS011;62005;50.082;8.988;2023-03-01T03:11:46;7.75;;;4.75;;
73699;SDS011;62005;50.082;8.988;2023-03-01T03:14:33;12.95;;;5.85;;
73699;SDS011;62005;50.082;8.988;2023-03-01T03:17:26;8.30;;;4.55;;
73699;SDS011;62005;50.082;8.988;2023-03-01T03:20:13;11.07;;;5.07;;
73699;SDS011;62005;50.082;8.988;2023-03-01T03:22:44;10.93;;;5.18;;
73699;SDS011;62005;50.082;8.988;2023-03-01T03:25:10;12.27;;;5.75;;
73699;SDS011;62005;50.082;8.988;2023-03-01T03:27:36;9.50;;;5.47;;
73699;SDS011;62005;50.082;8.988;2023-03-01T03:30:06;10.80;;;5.10;;
73699;SDS011;62005;50.082;8.988;2023-03-01T03:32:37;12.45;;;5.78;;
73699;SDS011;62005;50.082;8.988;2023-03-01T03:35:04;8.52;;;4.93;;
73699;SDS011;62005;50.082;8.988;2023-03-01T03:37:41;10.27;;;5.03;;
73699;SDS011;62005;50.082;8.988;2023-03-01T03:40:26;10.75;;;5.88;;
73699;SDS011;62005;50.082;8.988;2023-03-01T03:42:52;10.95;;;5.82;;
73699;SDS011;62005;50.082;8.988;2023-03-01T03:45:17;9.60;;;4.93;;
73699;SDS011;62005;50.082;8.988;2023-03-01T03:47:43;11.13;;;7.28;;
73699;SDS011;62005;50.082;8.988;2023-03-01T03:50:12;14.25;;;5.30;;
73699;SDS011;62005;50.082;8.988;2023-03-01T03:52:39;11.27;;;5.15;;
73699;SDS011;62005;50.082;8.988;2023-03-01T03:55:05;11.18;;;6.70;;
73699;SDS011;62005;50.082;8.988;2023-03-01T03:57:35;10.63;;;6.10;;
73699;SDS011;62005;50.082;8.988;2023-03-01T04:00:01;10.00;;;5.45;;
73699;SDS011;62005;50.082;8.988;2023-03-01T04:02:29;12.30;;;5.78;;
73699;SDS011;62005;50.082;8.988;2023-03-01T04:08:56;10.48;;;4.88;;
73699;SDS011;62005;50.082;8.988;2023-03-01T04:11:57;10.55;;;6.38;;
73699;SDS011;62005;50.082;8.988;2023-03-01T04:20:20;10.52;;;4.75;;
73699;SDS011;62005;50.082;8.988;2023-03-01T04:23:15;10.48;;;5.18;;
73699;SDS011;62005;50.082;8.988;2023-03-01T04:26:12;10.73;;;5.93;;
73699;SDS011;62005;50.082;8.988;2023-03-01T04:29:15;10.00;;;5.22;;
73699;SDS011;62005;50.082;8.988;2023-03-01T04:32:21;13.05;;;5.95;;
73699;SDS011;62005;50.082;8.988;2023-03-01T04:35:20;11.30;;;4.97;;
73699;SDS011;62005;50.082;8.988;2023-03-01T04:37:49;12.35;;;5.28;;
73699;SDS011;62005;50.082;8.988;2023-03-01T04:40:54;12.43;;;6.03;;
73699;SDS011;62005;50.082;8.988;2023-03-01T04:49:40;11.88;;;5.93;;
73699;SDS011;62005;50.082;8.988;2023-03-01T04:52:06;12.37;;;5.63;;
73699;SDS011;62005;50.082;8.988;2023-03-01T04:54:31;11.53;;;5.33;;
73699;SDS011;62005;50.082;8.988;2023-03-01T04:56:58;11.35;;;5.60;;
73699;SDS011;62005;50.082;8.988;2023-03-01T04:59:26;11.27;;;6.40;;
73699;SDS011;62005;50.082;8.988;2023-03-01T05:01:52;11.90;;;5.63;;
73699;SDS011;62005;50.082;8.988;2023-03-01T05:04:21;11.48;;;6.07;;
73699;SDS011;62005;50.082;8.988;2023-03-01T05:06:47;14.85;;;6.43;;
73699;SDS011;62005;50.082;8.988;2023-03-01T05:09:12;11.17;;;5.93;;
73699;SDS011;62005;50.082;8.988;2023-03-01T05:11:37;12.03;;;6.53;;
73699;SDS011;62005;50.082;8.988;2023-03-01T05:14:03;12.73;;;7.23;;
73699;SDS011;62005;50.082;8.988;2023-03-01T05:16:29;13.68;;;5.88;;
73699;SDS011;62005;50.082;8.988;2023-03-01T05:18:55;12.85;;;5.85;;
73699;SDS011;62005;50.082;8.988;2023-03-01T05:21:21;14.45;;;5.80;;
73699;SDS011;62005;50.082;8.988;2023-03-01T05:23:47;10.05;;;5.00;;
73699;SDS011;62005;50.082;8.988;2023-03-01T05:26:13;10.70;;;6.10;;
73699;SDS011;62005;50.082;8.988;2023-03-01T05:28:39;10.75;;;6.15;;
73699;SDS011;62005;50.082;8.988;2023-03-01T05:31:04;12.48;;;5.97;;
73699;SDS011;62005;50.082;8.988;2023-03-01T05:33:34;11.35;;;6.53;;
73699;SDS011;62005;50.082;8.988;2023-03-01T05:36:06;12.25;;;6.55;;
73699;SDS011;62005;50.082;8.988;2023-03-01T05:38:32;11.52;;;6.38;;
73699;SDS011;62005;50.082;8.988;2023-03-01T05:40:58;11.70;;;5.32;;
73699;SDS011;62005;50.082;8.988;2023-03-01T05:43:24;11.77;;;6.32;;
73699;SDS011;62005;50.082;8.988;2023-03-01T05:45:50;12.52;;;4.88;;
73699;SDS011;62005;50.082;8.988;2023-03-01T05:48:16;16.63;;;7.07;;
73699;SDS011;62005;50.082;8.988;2023-03-01T05:50:42;11.10;;;5.47;;
73699;SDS011;62005;50.082;8.988;2023-03-01T05:55:36;12.68;;;7.38;;
73699;SDS011;62005;50.082;8.988;2023-03-01T05:58:07;10.18;;;5.68;;
73699;SDS011;62005;50.082;8.988;2023-03-01T06:04:41;14.38;;;5.68;;
73699;SDS011;62005;50.082;8.988;2023-03-01T06:18:00;12.77;;;6.75;;
73699;SDS011;62005;50.082;8.988;2023-03-01T06:20:56;14.02;;;5.47;;
73699;SDS011;62005;50.082;8.988;2023-03-01T06:23:46;11.20;;;7.32;;
73699;SDS011;62005;50.082;8.988;2023-03-01T06:29:52;12.35;;;6.20;;
73699;SDS011;62005;50.082;8.988;2023-03-01T06:33:08;11.65;;;5.85;;
73699;SDS011;62005;50.082;8.988;2023-03-01T06:35:51;13.73;;;5.57;;
73699;SDS011;62005;50.082;8.988;2023-03-01T06:50:16;12.75;;;5.97;;
73699;SDS011;62005;50.082;8.988;2023-03-01T06:52:42;13.90;;;5.57;;
73699;SDS011;62005;50.082;8.988;2023-03-01T06:55:18;10.70;;;5.65;;
73699;SDS011;62005;50.082;8.988;2023-03-01T06:58:21;9.93;;;5.15;;
73699;SDS011;62005;50.082;8.988;2023-03-01T07:01:05;12.93;;;6.20;;
73699;SDS011;62005;50.082;8.988;2023-03-01T07:03:31;12.88;;;6.00;;
73699;SDS011;62005;50.082;8.988;2023-03-01T07:10:27;12.18;;;5.30;;
73699;SDS011;62005;50.082;8.988;2023-03-01T07:13:18;13.68;;;6.82;;
73699;SDS011;62005;50.082;8.988;2023-03-01T07:16:38;12.40;;;5.90;;
73699;SDS011;62005;50.082;8.988;2023-03-01T07:19:31;9.95;;;4.93;;
73699;SDS011;62005;50.082;8.988;2023-03-01T07:21:56;15.82;;;6.03;;
73699;SDS011;62005;50.082;8.988;2023-03-01T07:24:22;10.95;;;6.10;;
73699;SDS011;62005;50.082;8.988;2023-03-01T07:26:50;12.93;;;5.60;;
73699;SDS011;62005;50.082;8.988;2023-03-01T07:29:16;13.77;;;5.35;;
73699;SDS011;62005;50.082;8.988;2023-03-01T07:31:42;13.43;;;5.30;;
73699;SDS011;62005;50.082;8.988;2023-03-01T07:34:08;12.10;;;5.85;;
73699;SDS011;62005;50.082;8.988;2023-03-01T07:36:33;10.63;;;5.80;;
73699;SDS011;62005;50.082;8.988;2023-03-01T07:38:59;12.10;;;6.53;;
73699;SDS011;62005;50.082;8.988;2023-03-01T07:41:27;10.88;;;5.40;;
73699;SDS011;62005;50.082;8.988;2023-03-01T07:43:52;15.63;;;7.17;;
73699;SDS011;62005;50.082;8.988;2023-03-01T07:46:17;12.20;;;6.17;;
73699;SDS011;62005;50.082;8.988;2023-03-01T07:51:19;12.38;;;5.68;;
73699;SDS011;62005;50.082;8.988;2023-03-01T07:53:47;12.57;;;5.70;;
73699;SDS011;62005;50.082;8.988;2023-03-01T07:56:13;14.60;;;6.22;;
73699;SDS011;62005;50.082;8.988;2023-03-01T07:58:41;10.32;;;5.30;;
73699;SDS011;62005;50.082;8.988;2023-03-01T08:01:08;11.45;;;5.95;;
73699;SDS011;62005;50.082;8.988;2023-03-01T08:03:35;12.18;;;5.55;;
73699;SDS011;62005;50.082;8.988;2023-03-01T08:06:02;10.23;;;6.07;;
73699;SDS011;62005;50.082;8.988;2023-03-01T08:08:28;12.35;;;5.80;;
73699;SDS011;62005;50.082;8.988;2023-03-01T08:10:58;12.50;;;6.10;;
73699;SDS011;62005;50.082;8.988;2023-03-01T08:13:24;12.07;;;5.55;;
73699;SDS011;62005;50.082;8.988;2023-03-01T08:15:49;12.30;;;5.70;;
73699;SDS011;62005;50.082;8.988;2023-03-01T08:18:15;10.77;;;5.63;;
73699;SDS011;62005;50.082;8.988;2023-03-01T08:20:42;9.48;;;5.20;;
73699;SDS011;62005;50.082;8.988;2023-03-01T08:23:07;12.53;;;5.53;;
73699;SDS011;62005;50.082;8.988;2023-03-01T08:25:32;10.17;;;5.93;;
73699;SDS011;62005;50.082;8.988;2023-03-01T08:45:31;10.38;;;5.97;;
73699;SDS011;62005;50.082;8.988;2023-03-01T08:52:06;13.07;;;5.57;;
73699;SDS011;62005;50.082;8.988;2023-03-01T08:54:31;10.10;;;5.50;;
73699;SDS011;62005;50.082;8.988;2023-03-01T08:56:56;12.90;;;5.73;;
73699;SDS011;62005;50.082;8.988;2023-03-01T09:09:42;9.88;;;5.45;;
73699;SDS011;62005;50.082;8.988;2023-03-01T09:16:13;9.95;;;5.40;;
73699;SDS011;62005;50.082;8.988;2023-03-01T09:18:56;12.18;;;5.32;;
73699;SDS011;62005;50.082;8.988;2023-03-01T09:21:55;10.73;;;5.28;;
73699;SDS011;62005;50.082;8.988;2023-03-01T09:24:21;12.85;;;6.47;;
73699;SDS011;62005;50.082;8.988;2023-03-01T09:26:48;12.38;;;5.40;;
73699;SDS011;62005;50.082;8.988;2023-03-01T09:29:14;11.00;;;5.93;;
73699;SDS011;62005;50.082;8.988;2023-03-01T09:31:40;11.95;;;5.47;;
73699;SDS011;62005;50.082;8.988;2023-03-01T09:34:06;13.13;;;6.13;;
73699;SDS011;62005;50.082;8.988;2023-03-01T09:36:33;10.45;;;5.45;;
73699;SDS011;62005;50.082;8.988;2023-03-01T09:38:58;9.18;;;4.80;;
73699;SDS011;62005;50.082;8.988;2023-03-01T09:41:44;12.98;;;5.70;;
73699;SDS011;62005;50.082;8.988;2023-03-01T09:44:36;12.02;;;5.47;;
73699;SDS011;62005;50.082;8.988;2023-03-01T09:47:24;10.90;;;5.00;;
73699;SDS011;62005;50.082;8.988;2023-03-01T09:53:02;13.38;;;5.03;;
73699;SDS011;62005;50.082;8.988;2023-03-01T09:55:33;10.93;;;5.10;;
73699;SDS011;62005;50.082;8.988;2023-03-01T10:10:37;9.52;;;5.25;;
73699;SDS011;62005;50.082;8.988;2023-03-01T10:22:46;9.38;;;5.30;;
73699;SDS011;62005;50.082;8.988;2023-03-01T10:29:12;12.02;;;6.80;;
73699;SDS011;62005;50.082;8.988;2023-03-01T10:31:57;13.48;;;6.97;;
73699;SDS011;62005;50.082;8.988;2023-03-01T10:48:02;12.90;;;5.45;;
73699;SDS011;62005;50.082;8.988;2023-03-01T10:50:37;8.48;;;4.80;;
73699;SDS011;62005;50.082;8.988;2023-03-01T10:53:04;11.02;;;5.15;;
73699;SDS011;62005;50.082;8.988;2023-03-01T10:55:41;11.57;;;5.50;;
73699;SDS011;62005;50.082;8.988;2023-03-01T10:58:19;11.50;;;5.75;;
73699;SDS011;62005;50.082;8.988;2023-03-01T11:00:48;8.90;;;4.60;;
73699;SDS011;62005;50.082;8.988;2023-03-01T11:03:26;9.65;;;5.03;;
73699;SDS011;62005;50.082;8.988;2023-03-01T11:08:46;10.82;;;6.30;;
73699;SDS011;62005;50.082;8.988;2023-03-01T11:13:55;8.63;;;4.75;;
73699;SDS011;62005;50.082;8.988;2023-03-01T11:16:38;8.00;;;4.50;;
73699;SDS011;62005;50.082;8.988;2023-03-01T11:19:19;6.90;;;4.60;;
73699;SDS011;62005;50.082;8.988;2023-03-01T11:25:10;7.97;;;4.18;;
73699;SDS011;62005;50.082;8.988;2023-03-01T11:28:03;8.10;;;4.32;;
73699;SDS011;62005;50.082;8.988;2023-03-01T11:34:11;7.47;;;4.13;;
73699;SDS011;62005;50.082;8.988;2023-03-01T11:37:07;6.63;;;3.97;;
73699;SDS011;62005;50.082;8.988;2023-03-01T12:03:52;9.95;;;4.90;;
73699;SDS011;62005;50.082;8.988;2023-03-01T12:09:02;7.67;;;3.87;;
73699;SDS011;62005;50.082;8.988;2023-03-01T12:43:15;7.07;;;3.70;;
73699;SDS011;62005;50.082;8.988;2023-03-01T12:45:48;8.95;;;3.47;;
73699;SDS011;62005;50.082;8.988;2023-03-01T12:50:59;8.90;;;3.47;;
73699;SDS011;62005;50.082;8.988;2023-03-01T12:53:31;8.68;;;4.22;;
73699;SDS011;62005;50.082;8.988;2023-03-01T12:56:02;7.40;;;3.42;;
73699;SDS011;62005;50.082;8.988;2023-03-01T12:58:55;8.85;;;4.00;;
73699;SDS011;62005;50.082;8.988;2023-03-01T13:04:40;7.38;;;3.33;;
73699;SDS011;62005;50.082;8.988;2023-03-01T13:13:00;8.85;;;3.67;;
73699;SDS011;62005;50.082;8.988;2023-03-01T13:15:37;5.82;;;3.03;;
73699;SDS011;62005;50.082;8.988;2023-03-01T13:23:08;6.87;;;3.40;;
73699;SDS011;62005;50.082;8.988;2023-03-01T13:25:59;9.13;;;3.42;;
73699;SDS011;62005;50.082;8.988;2023-03-01T13:28:46;6.18;;;3.30;;
73699;SDS011;62005;50.082;8.988;2023-03-01T13:33:48;6.50;;;3.33;;
73699;SDS011;62005;50.082;8.988;2023-03-01T13:44:11;9.02;;;4.47;;
73699;SDS011;62005;50.082;8.988;2023-03-01T13:46:52;11.02;;;4.50;;
73699;SDS011;62005;50.082;8.988;2023-03-01T13:49:25;8.88;;;4.03;;
73699;SDS011;62005;50.082;8.988;2023-03-01T13:51:58;7.57;;;3.83;;
73699;SDS011;62005;50.082;8.988;2023-03-01T13:54:30;9.97;;;5.07;;
73699;SDS011;62005;50.082;8.988;2023-03-01T13:56:58;10.80;;;4.65;;
73699;SDS011;62005;50.082;8.988;2023-03-01T13:59:25;8.45;;;4.32;;
73699;SDS011;62005;50.082;8.988;2023-03-01T14:01:52;9.02;;;4.82;;
73699;SDS011;62005;50.082;8.988;2023-03-01T14:04:22;7.78;;;4.75;;
73699;SDS011;62005;50.082;8.988;2023-03-01T14:06:48;11.35;;;5.40;;
73699;SDS011;62005;50.082;8.988;2023-03-01T14:09:15;9.80;;;4.75;;
73699;SDS011;62005;50.082;8.988;2023-03-01T14:19:58;8.23;;;4.63;;
73699;SDS011;62005;50.082;8.988;2023-03-01T14:22:30;9.50;;;4.88;;
73699;SDS011;62005;50.082;8.988;2023-03-01T14:25:16;10.55;;;5.50;;
73699;SDS011;62005;50.082;8.988;2023-03-01T14:27:45;10.05;;;4.80;;
73699;SDS011;62005;50.082;8.988;2023-03-01T14:30:37;9.10;;;4.82;;
73699;SDS011;62005;50.082;8.988;2023-03-01T14:36:07;8.57;;;4.72;;
73699;SDS011;62005;50.082;8.988;2023-03-01T14:38:42;9.57;;;5.25;;
73699;SDS011;62005;50.082;8.988;2023-03-01T14:41:12;10.05;;;5.07;;
73699;SDS011;62005;50.082;8.988;2023-03-01T14:43:41;8.48;;;4.55;;
73699;SDS011;62005;50.082;8.988;2023-03-01T14:46:20;9.20;;;4.55;;
73699;SDS011;62005;50.082;8.988;2023-03-01T14:48:52;11.70;;;5.18;;
73699;SDS011;62005;50.082;8.988;2023-03-01T14:51:20;11.68;;;4.68;;
73699;SDS011;62005;50.082;8.988;2023-03-01T14:53:46;8.82;;;4.80;;
73699;SDS011;62005;50.082;8.988;2023-03-01T14:56:12;9.82;;;4.68;;
73699;SDS011;62005;50.082;8.988;2023-03-01T14:58:38;10.10;;;5.38;;
73699;SDS011;62005;50.082;8.988;2023-03-01T15:01:04;9.50;;;5.17;;
73699;SDS011;62005;50.082;8.988;2023-03-01T15:06:02;10.27;;;5.03;;
73699;SDS011;62005;50.082;8.988;2023-03-01T15:08:35;8.18;;;4.53;;
73699;SDS011;62005;50.082;8.988;2023-03-01T15:13:38;10.38;;;4.68;;
73699;SDS011;62005;50.082;8.988;2023-03-01T15:18:35;8.75;;;4.30;;
73699;SDS011;62005;50.082;8.988;2023-03-01T15:21:15;9.98;;;4.53;;
73699;SDS011;62005;50.082;8.988;2023-03-01T15:23:40;9.43;;;4.32;;
73699;SDS011;62005;50.082;8.988;2023-03-01T15:26:06;10.00;;;4.97;;
73699;SDS011;62005;50.082;8.988;2023-03-01T15:28:48;10.90;;;5.13;;
73699;SDS011;62005;50.082;8.988;2023-03-01T15:33:45;9.10;;;4.78;;
73699;SDS011;62005;50.082;8.988;2023-03-01T15:38:55;9.93;;;4.80;;
73699;SDS011;62005;50.082;8.988;2023-03-01T15:41:24;10.02;;;4.93;;
73699;SDS011;62005;50.082;8.988;2023-03-01T15:43:56;12.55;;;5.03;;
73699;SDS011;62005;50.082;8.988;2023-03-01T15:48:58;11.48;;;5.20;;
73699;SDS011;62005;50.082;8.988;2023-03-01T15:51:31;10.77;;;5.93;;
73699;SDS011;62005;50.082;8.988;2023-03-01T15:53:58;10.15;;;5.60;;
73699;SDS011;62005;50.082;8.988;2023-03-01T15:56:28;10.75;;;4.93;;
73699;SDS011;62005;50.082;8.988;2023-03-01T15:58:57;12.68;;;5.60;;
73699;SDS011;62005;50.082;8.988;2023-03-01T16:01:23;11.80;;;5.50;;
73699;SDS011;62005;50.082;8.988;2023-03-01T16:03:49;9.93;;;4.88;;
73699;SDS011;62005;50.082;8.988;2023-03-01T16:06:14;9.68;;;4.90;;
73699;SDS011;62005;50.082;8.988;2023-03-01T16:08:39;11.63;;;5.43;;
73699;SDS011;62005;50.082;8.988;2023-03-01T16:11:11;11.35;;;5.28;;
73699;SDS011;62005;50.082;8.988;2023-03-01T16:13:50;11.27;;;5.78;;
73699;SDS011;62005;50.082;8.988;2023-03-01T16:16:16;13.07;;;6.00;;
73699;SDS011;62005;50.082;8.988;2023-03-01T16:18:48;11.43;;;5.13;;
73699;SDS011;62005;50.082;8.988;2023-03-01T16:21:19;10.13;;;5.93;;
73699;SDS011;62005;50.082;8.988;2023-03-01T16:23:49;9.73;;;5.25;;
73699;SDS011;62005;50.082;8.988;2023-03-01T16:26:16;10.55;;;5.60;;
73699;SDS011;62005;50.082;8.988;2023-03-01T16:28:45;10.88;;;5.20;;
73699;SDS011;62005;50.082;8.988;2023-03-01T16:31:18;11.23;;;5.35;;
73699;SDS011;62005;50.082;8.988;2023-03-01T16:33:47;12.65;;;8.85;;
73699;SDS011;62005;50.082;8.988;2023-03-01T16:36:19;14.43;;;6.07;;
73699;SDS011;62005;50.082;8.988;2023-03-01T16:38:48;11.40;;;5.90;;
73699;SDS011;62005;50.082;8.988;2023-03-01T16:41:15;11.35;;;5.65;;
73699;SDS011;62005;50.082;8.988;2023-03-01T16:43:48;11.40;;;5.53;;
73699;SDS011;62005;50.082;8.988;2023-03-01T16:46:18;13.45;;;5.40;;
73699;SDS011;62005;50.082;8.988;2023-03-01T16:48:46;11.98;;;5.50;;
73699;SDS011;62005;50.082;8.988;2023-03-01T16:51:15;10.20;;;5.32;;
73699;SDS011;62005;50.082;8.988;2023-03-01T16:53:41;10.63;;;4.80;;
73699;SDS011;62005;50.082;8.988;2023-03-01T16:56:07;9.88;;;5.35;;
73699;SDS011;62005;50.082;8.988;2023-03-01T16:58:35;12.00;;;5.38;;
73699;SDS011;62005;50.082;8.988;2023-03-01T17:01:05;11.05;;;5.70;;
73699;SDS011;62005;50.082;8.988;2023-03-01T17:03:32;10.40;;;5.43;;
73699;SDS011;62005;50.082;8.988;2023-03-01T17:06:01;11.57;;;5.75;;
73699;SDS011;62005;50.082;8.988;2023-03-01T17:08:28;11.65;;;5.20;;
73699;SDS011;62005;50.082;8.988;2023-03-01T17:10:53;9.73;;;5.07;;
73699;SDS011;62005;50.082;8.988;2023-03-01T17:13:21;10.70;;;4.83;;
73699;SDS011;62005;50.082;8.988;2023-03-01T17:15:50;9.38;;;5.00;;
73699;SDS011;62005;50.082;8.988;2023-03-01T17:18:18;9.48;;;4.80;;
73699;SDS011;62005;50.082;8.988;2023-03-01T17:20:43;10.30;;;5.03;;
73699;SDS011;62005;50.082;8.988;2023-03-01T17:23:09;12.97;;;5.40;;
73699;SDS011;62005;50.082;8.988;2023-03-01T17:25:34;9.97;;;5.30;;
73699;SDS011;62005;50.082;8.988;2023-03-01T17:28:00;13.50;;;7.80;;
73699;SDS011;62005;50.082;8.988;2023-03-01T17:30:28;11.88;;;6.35;;
73699;SDS011;62005;50.082;8.988;2023-03-01T17:32:59;12.55;;;6.72;;
73699;SDS011;62005;50.082;8.988;2023-03-01T17:35:24;11.20;;;5.68;;
73699;SDS011;62005;50.082;8.988;2023-03-01T17:37:52;10.38;;;5.35;;
73699;SDS011;62005;50.082;8.988;2023-03-01T17:40:18;12.70;;;5.20;;
73699;SDS011;62005;50.082;8.988;2023-03-01T17:42:46;11.45;;;5.82;;
73699;SDS011;62005;50.082;8.988;2023-03-01T17:45:11;13.25;;;7.15;;
73699;SDS011;62005;50.082;8.988;2023-03-01T17:47:39;13.00;;;5.22;;
73699;SDS011;62005;50.082;8.988;2023-03-01T17:50:05;12.73;;;6.03;;
73699;SDS011;62005;50.082;8.988;2023-03-01T17:52:32;13.18;;;6.35;;
73699;SDS011;62005;50.082;8.988;2023-03-01T17:54:57;12.00;;;5.83;;
73699;SDS011;62005;50.082;8.988;2023-03-01T17:57:37;12.00;;;5.45;;
73699;SDS011;62005;50.082;8.988;2023-03-01T18:00:14;9.73;;;5.25;;
73699;SDS011;62005;50.082;8.988;2023-03-01T18:02:44;11.68;;;5.28;;
73699;SDS011;62005;50.082;8.988;2023-03-01T18:05:12;13.95;;;6.15;;
73699;SDS011;62005;50.082;8.988;2023-03-01T18:07:49;9.95;;;5.32;;
73699;SDS011;62005;50.082;8.988;2023-03-01T18:12:55;10.13;;;4.73;;
73699;SDS011;62005;50.082;8.988;2023-03-01T18:15:21;10.73;;;5.28;;
73699;SDS011;62005;50.082;8.988;2023-03-01T18:17:55;9.93;;;4.97;;
73699;SDS011;62005;50.082;8.988;2023-03-01T18:20:23;9.55;;;4.53;;
73699;SDS011;62005;50.082;8.988;2023-03-01T18:22:49;10.68;;;5.32;;
73699;SDS011;62005;50.082;8.988;2023-03-01T18:25:19;10.63;;;4.82;;
73699;SDS011;62005;50.082;8.988;2023-03-01T18:30:26;11.07;;;5.65;;
73699;SDS011;62005;50.082;8.988;2023-03-01T18:32:57;11.68;;;5.38;;
73699;SDS011;62005;50.082;8.988;2023-03-01T18:35:40;11.48;;;5.40;;
73699;SDS011;62005;50.082;8.988;2023-03-01T18:38:06;9.80;;;5.05;;
73699;SDS011;62005;50.082;8.988;2023-03-01T18:40:34;10.65;;;5.50;;
73699;SDS011;62005;50.082;8.988;2023-03-01T18:43:08;11.68;;;5.40;;
73699;SDS011;62005;50.082;8.988;2023-03-01T18:45:33;10.88;;;4.93;;
73699;SDS011;62005;50.082;8.988;2023-03-01T18:47:59;8.20;;;4.55;;
73699;SDS011;62005;50.082;8.988;2023-03-01T18:50:31;12.38;;;5.68;;
73699;SDS011;62005;50.082;8.988;2023-03-01T18:53:05;14.32;;;5.80;;
73699;SDS011;62005;50.082;8.988;2023-03-01T18:55:45;15.38;;;7.13;;
73699;SDS011;62005;50.082;8.988;2023-03-01T18:58:11;21.00;;;7.88;;
73699;SDS011;62005;50.082;8.988;2023-03-01T19:00:45;15.73;;;8.43;;
73699;SDS011;62005;50.082;8.988;2023-03-01T19:03:13;12.10;;;6.10;;
73699;SDS011;62005;50.082;8.988;2023-03-01T19:05:41;14.20;;;6.78;;
73699;SDS011;62005;50.082;8.988;2023-03-01T19:08:07;16.05;;;6.53;;
73699;SDS011;62005;50.082;8.988;2023-03-01T19:10:35;12.30;;;6.18;;
73699;SDS011;62005;50.082;8.988;2023-03-01T19:13:14;10.90;;;4.78;;
73699;SDS011;62005;50.082;8.988;2023-03-01T19:15:39;13.10;;;5.15;;
73699;SDS011;62005;50.082;8.988;2023-03-01T19:18:04;13.73;;;5.50;;
73699;SDS011;62005;50.082;8.988;2023-03-01T19:20:30;12.82;;;5.25;;
73699;SDS011;62005;50.082;8.988;2023-03-01T19:22:55;14.57;;;6.97;;
73699;SDS011;62005;50.082;8.988;2023-03-01T19:25:21;13.35;;;5.32;;
73699;SDS011;62005;50.082;8.988;2023-03-01T19:30:34;13.18;;;6.55;;
73699;SDS011;62005;50.082;8.988;2023-03-01T19:32:59;15.13;;;5.33;;
73699;SDS011;62005;50.082;8.988;2023-03-01T19:35:34;11.05;;;5.22;;
73699;SDS011;62005;50.082;8.988;2023-03-01T19:38:08;14.35;;;5.18;;
73699;SDS011;62005;50.082;8.988;2023-03-01T19:40:34;11.35;;;5.20;;
73699;SDS011;62005;50.082;8.988;2023-03-01T19:43:00;12.02;;;5.35;;
73699;SDS011;62005;50.082;8.988;2023-03-01T19:48:41;12.85;;;5.18;;
73699;SDS011;62005;50.082;8.988;2023-03-01T19:51:08;11.85;;;5.05;;
73699;SDS011;62005;50.082;8.988;2023-03-01T19:53:36;11.88;;;5.13;;
73699;SDS011;62005;50.082;8.988;2023-03-01T19:56:02;12.35;;;5.22;;
73699;SDS011;62005;50.082;8.988;2023-03-01T19:58:29;10.63;;;5.15;;
73699;SDS011;62005;50.082;8.988;2023-03-01T20:00:55;14.68;;;6.18;;
73699;SDS011;62005;50.082;8.988;2023-03-01T20:03:31;11.90;;;6.13;;
73699;SDS011;62005;50.082;8.988;2023-03-01T20:06:35;12.45;;;5.90;;
73699;SDS011;62005;50.082;8.988;2023-03-01T20:08:53;13.75;;;5.97;;
73699;SDS011;62005;50.082;8.988;2023-03-01T20:11:19;10.75;;;5.18;;